createdAt,value
2023-08-07T00:03:56.819Z,11.70
2023-08-07T00:09:00.258Z,11.70
2023-08-07T00:14:06.134Z,11.80
2023-08-07T00:19:09.605Z,11.70
2023-08-07T00:24:12.992Z,11.70
2023-08-07T00:29:17.807Z,11.60
2023-08-07T00:34:21.394Z,11.60
2023-08-07T00:39:24.811Z,11.60
2023-08-07T00:44:29.996Z,11.50
2023-08-07T00:49:33.623Z,11.60
2023-08-07T00:54:37.179Z,11.50
2023-08-07T00:59:42.674Z,11.50
2023-08-07T01:04:46.627Z,11.40
2023-08-07T01:09:50.033Z,11.40
2023-08-07T01:15:00.814Z,11.40
2023-08-07T01:20:05.795Z,11.40
2023-08-07T01:25:10.930Z,11.30
2023-08-07T01:30:24.472Z,11.30
2023-08-07T01:35:31.874Z,11.30
2023-08-07T01:40:39.813Z,11.30
2023-08-07T01:45:43.452Z,11.20
2023-08-07T01:50:47.358Z,11.20
2023-08-07T01:55:55.101Z,10.00
2023-08-07T02:00:58.835Z,11.30
2023-08-07T02:06:03.173Z,11.30
2023-08-07T02:11:08.118Z,11.30
2023-08-07T02:16:11.600Z,11.30
2023-08-07T02:21:15.541Z,11.30
2023-08-07T02:26:20.487Z,11.30
2023-08-07T02:31:24.042Z,11.30
2023-08-07T02:36:27.571Z,11.20
2023-08-07T02:41:32.864Z,11.20
2023-08-07T02:46:38.246Z,11.20
2023-08-07T02:51:41.764Z,11.20
2023-08-07T02:56:46.767Z,11.20
2023-08-07T03:01:50.523Z,11.30
2023-08-07T03:06:54.684Z,11.30
2023-08-07T03:12:04.376Z,11.30
2023-08-07T03:17:08.786Z,11.20
2023-08-07T03:22:12.459Z,11.20
2023-08-07T03:27:17.755Z,11.20
2023-08-07T03:32:21.274Z,11.20
2023-08-07T03:37:25.371Z,11.20
2023-08-07T03:42:30.125Z,11.20
2023-08-07T03:47:33.892Z,11.20
2023-08-07T03:52:37.667Z,11.10
2023-08-07T03:57:42.488Z,11.10
2023-08-07T04:02:46.132Z,11.10
2023-08-07T04:07:51.412Z,11.10
2023-08-07T04:12:56.163Z,11.10
2023-08-07T04:17:59.690Z,11.10
2023-08-07T04:23:03.723Z,11.00
2023-08-07T04:28:08.489Z,12.80
2023-08-07T04:33:11.959Z,10.80
2023-08-07T04:38:15.336Z,10.60
2023-08-07T04:43:21.887Z,10.60
2023-08-07T04:48:26.852Z,10.60
2023-08-07T04:53:30.402Z,10.50
2023-08-07T04:58:35.173Z,10.50
2023-08-07T05:03:38.675Z,10.50
2023-08-07T05:08:42.351Z,10.50
2023-08-07T05:13:47.142Z,10.50
2023-08-07T05:18:51.239Z,10.50
2023-08-07T05:23:56.465Z,10.50
2023-08-07T05:29:01.284Z,10.50
2023-08-07T05:34:05.006Z,10.50
2023-08-07T05:39:08.426Z,10.50
2023-08-07T05:44:13.264Z,10.50
2023-08-07T05:49:16.657Z,10.50
2023-08-07T05:54:20.224Z,11.90
2023-08-07T05:59:25.046Z,10.50
2023-08-07T06:04:28.517Z,10.50
2023-08-07T06:09:31.894Z,10.40
2023-08-07T06:14:36.653Z,10.40
2023-08-07T06:19:40.027Z,10.40
2023-08-07T06:24:43.394Z,10.50
2023-08-07T06:29:48.429Z,10.40
2023-08-07T06:34:51.812Z,10.40
2023-08-07T06:39:55.170Z,10.40
2023-08-07T06:45:00.036Z,10.40
2023-08-07T06:50:03.420Z,10.40
2023-08-07T06:55:08.169Z,10.40
2023-08-07T07:00:14.490Z,10.40
2023-08-07T07:05:20.692Z,10.40
2023-08-07T07:10:24.341Z,10.40
2023-08-07T07:15:29.098Z,10.40
2023-08-07T07:20:32.446Z,10.40
2023-08-07T07:25:35.974Z,10.40
2023-08-07T07:30:41.712Z,10.60
2023-08-07T07:35:45.271Z,10.50
2023-08-07T07:40:48.674Z,10.50
2023-08-07T07:45:53.586Z,10.50
2023-08-07T07:51:01.651Z,10.50
2023-08-07T07:56:05.260Z,10.50
2023-08-07T08:01:10.573Z,10.50
2023-08-07T08:06:14.644Z,10.60
2023-08-07T08:11:18.984Z,10.60
2023-08-07T08:16:23.761Z,10.60
2023-08-07T08:21:27.246Z,10.60
2023-08-07T08:26:30.785Z,10.70
2023-08-07T08:31:35.684Z,10.60
2023-08-07T08:36:39.067Z,10.70
2023-08-07T08:41:43.881Z,10.70
2023-08-07T08:46:54.990Z,10.80
2023-08-07T08:52:00.020Z,10.90
2023-08-07T08:57:04.222Z,10.80
2023-08-07T09:02:09.469Z,10.90
2023-08-07T09:07:15.461Z,10.90
2023-08-07T09:12:22.447Z,10.80
2023-08-07T09:17:31.567Z,11.00
2023-08-07T09:22:35.004Z,11.00
2023-08-07T09:27:39.312Z,11.10
2023-08-07T09:32:44.073Z,11.20
2023-08-07T09:37:47.784Z,11.20
2023-08-07T09:42:54.457Z,11.00
2023-08-07T09:48:03.037Z,11.10
2023-08-07T09:53:06.867Z,11.10
2023-08-07T09:58:14.586Z,11.10
2023-08-07T10:03:19.499Z,11.00
2023-08-07T10:08:24.232Z,11.20
2023-08-07T10:13:38.615Z,11.10
2023-08-07T10:18:44.695Z,11.10
2023-08-07T10:23:50.238Z,11.10
2023-08-07T10:28:55.373Z,11.30
2023-08-07T10:34:00.859Z,11.20
2023-08-07T10:39:11.557Z,11.20
2023-08-07T10:44:22.032Z,11.30
2023-08-07T10:49:38.418Z,11.50
2023-08-07T10:54:44.248Z,11.50
2023-08-07T10:59:51.914Z,11.70
2023-08-07T11:04:56.783Z,12.00
2023-08-07T11:10:01.308Z,11.90
2023-08-07T11:15:04.993Z,12.30
2023-08-07T11:20:12.306Z,12.70
2023-08-07T11:25:16.797Z,12.90
2023-08-07T11:30:20.535Z,13.10
2023-08-07T11:35:25.473Z,13.10
2023-08-07T11:40:28.885Z,13.50
2023-08-07T11:45:32.388Z,13.50
2023-08-07T11:50:37.255Z,13.70
2023-08-07T11:55:49.353Z,13.80
2023-08-07T12:00:53.010Z,16.20
2023-08-07T12:05:59.259Z,14.50
2023-08-07T12:11:05.351Z,14.60
2023-08-07T12:16:09.658Z,14.50
2023-08-07T12:21:17.513Z,14.70
2023-08-07T12:26:20.934Z,15.40
2023-08-07T12:31:24.471Z,15.80
2023-08-07T12:36:29.245Z,15.70
2023-08-07T12:46:40.255Z,14.70
2023-08-07T12:51:45.116Z,14.30
2023-08-07T12:56:48.869Z,14.50
2023-08-07T13:01:54.367Z,14.60
2023-08-07T13:06:59.480Z,14.70
2023-08-07T13:12:03.121Z,14.80
2023-08-07T13:17:07.121Z,14.60
2023-08-07T13:22:11.898Z,10.70
2023-08-07T13:27:15.341Z,14.70
2023-08-07T13:32:20.027Z,15.10
2023-08-07T13:37:24.752Z,15.00
2023-08-07T13:42:28.824Z,15.10
2023-08-07T13:47:32.265Z,14.90
2023-08-07T13:52:37.126Z,14.90
2023-08-07T13:57:40.616Z,14.70
2023-08-07T14:02:44.150Z,15.70
2023-08-07T14:07:48.993Z,16.30
2023-08-07T14:12:52.392Z,15.90
2023-08-07T14:17:55.783Z,15.60
2023-08-07T14:28:23.971Z,15.20
2023-08-07T14:33:27.338Z,15.10
2023-08-07T14:38:32.282Z,17.00
2023-08-07T14:43:35.742Z,16.30
2023-08-07T14:48:39.306Z,15.50
2023-08-07T14:53:44.173Z,15.20
2023-08-07T14:58:47.636Z,14.70
2023-08-07T15:03:51.120Z,14.60
2023-08-07T15:08:55.911Z,14.30
2023-08-07T15:13:59.307Z,14.30
2023-08-07T15:19:02.842Z,14.10
2023-08-07T15:24:07.912Z,14.00
2023-08-07T15:29:11.338Z,14.00
2023-08-07T15:34:14.699Z,13.60
2023-08-07T15:39:19.731Z,13.50
2023-08-07T15:44:23.104Z,13.30
2023-08-07T15:49:27.227Z,13.30
2023-08-07T15:54:32.117Z,13.20
2023-08-07T15:59:35.849Z,13.00
2023-08-07T16:04:39.559Z,13.10
2023-08-07T16:09:44.522Z,13.10
2023-08-07T16:14:49.168Z,13.10
2023-08-07T16:19:52.528Z,10.80
2023-08-07T16:24:57.281Z,13.30
2023-08-07T16:30:04.952Z,13.20
2023-08-07T16:35:10.928Z,13.10
2023-08-07T16:40:15.764Z,13.00
2023-08-07T16:45:20.961Z,13.10
2023-08-07T16:50:25.020Z,13.20
2023-08-07T16:55:30.039Z,13.10
2023-08-07T17:00:36.216Z,13.20
2023-08-07T17:05:39.879Z,13.10
2023-08-07T17:10:44.841Z,13.10
2023-08-07T17:15:48.836Z,13.00
2023-08-07T17:20:52.625Z,13.00
2023-08-07T17:25:58.861Z,13.00
2023-08-07T17:31:03.024Z,13.10
2023-08-07T17:36:07.782Z,13.00
2023-08-07T17:41:13.942Z,13.10
2023-08-07T17:46:17.531Z,13.10
2023-08-07T17:51:22.291Z,13.20
2023-08-07T17:56:27.237Z,13.20
2023-08-07T18:01:31.130Z,13.20
2023-08-07T18:06:34.724Z,13.20
2023-08-07T18:11:39.753Z,13.20
2023-08-07T18:16:43.372Z,13.30
2023-08-07T18:21:47.772Z,13.30
2023-08-07T18:26:52.775Z,13.30
2023-08-07T18:31:56.366Z,13.30
2023-08-07T18:37:00.336Z,13.30
2023-08-07T18:42:06.164Z,13.20
2023-08-07T18:47:09.885Z,13.20
2023-08-07T18:52:13.944Z,13.10
2023-08-07T18:57:19.116Z,13.00
2023-08-07T19:02:22.601Z,12.80
2023-08-07T19:07:26.297Z,12.70
2023-08-07T19:12:31.181Z,12.50
2023-08-07T19:17:35.848Z,12.40
2023-08-07T19:22:39.821Z,12.20
2023-08-07T19:27:44.893Z,12.10
2023-08-07T19:32:48.398Z,12.00
2023-08-07T19:37:51.927Z,11.90
2023-08-07T19:42:57.233Z,11.80
2023-08-07T19:48:01.212Z,11.80
2023-08-07T19:53:05.050Z,11.70
2023-08-07T19:58:10.307Z,11.70
2023-08-07T20:03:15.072Z,11.70
2023-08-07T20:08:18.765Z,11.70
2023-08-07T20:13:24.106Z,11.60
2023-08-07T20:18:27.571Z,11.60
2023-08-07T20:23:31.119Z,11.50
2023-08-07T20:28:36.231Z,11.40
2023-08-07T20:33:40.100Z,11.40
2023-08-07T20:38:43.803Z,11.40
2023-08-07T20:43:49.780Z,11.50
2023-08-07T20:48:53.577Z,11.60
2023-08-07T20:53:57.100Z,11.60
2023-08-07T20:59:02.496Z,11.60
2023-08-07T21:04:06.305Z,11.50
2023-08-07T21:09:09.972Z,11.60
2023-08-07T21:14:14.924Z,11.50
2023-08-07T21:19:18.519Z,11.50
2023-08-07T21:24:22.107Z,11.50
2023-08-07T21:29:27.146Z,11.40
2023-08-07T21:34:30.638Z,11.40
2023-08-07T21:39:34.177Z,11.40
2023-08-07T21:44:39.283Z,11.40
2023-08-07T21:49:43.014Z,11.40
2023-08-07T21:54:46.563Z,11.60
2023-08-07T21:59:51.588Z,11.60
2023-08-07T22:04:55.273Z,11.50
2023-08-07T22:09:59.028Z,11.30
2023-08-07T22:15:05.956Z,11.30
2023-08-07T22:20:11.977Z,11.30
2023-08-07T22:25:15.699Z,11.30
2023-08-07T22:30:21.860Z,11.20
2023-08-07T22:35:25.821Z,11.10
2023-08-07T22:40:29.656Z,11.10
2023-08-07T22:45:34.666Z,11.10
2023-08-07T22:50:38.302Z,10.90
2023-08-07T22:55:42.258Z,10.90
2023-08-07T23:00:47.325Z,10.80
2023-08-07T23:05:51.272Z,10.80
2023-08-07T23:10:54.878Z,10.80
2023-08-07T23:16:00.042Z,10.60
2023-08-07T23:21:03.689Z,10.50
2023-08-07T23:26:07.390Z,10.50
2023-08-07T23:31:12.785Z,10.50
2023-08-07T23:36:16.521Z,13.00
2023-08-07T23:41:20.296Z,10.10
2023-08-07T23:46:25.718Z,10.00
2023-08-07T23:51:29.268Z,10.10
2023-08-07T23:56:33.926Z,10.20
